• Join FlightAware (Why Join?)
  • Login
  • US Flag 
12:35PM EST


 

Airport Tracker/Info


-or-


 

Live Flight TrackerFlight Track Log ✈ SLI2120 ✈ 28-Jun-2013 ✈ MMGL / GDL - MMCL / CUL

Flight Track Log - Related Links

Times and Time Zones

All times are in EDT time to prevent confusion due to time zone crossing. See the SLI2120 flight status page for this flight to view local times or setup timezone preferences in your user account.

Time Position Orientation Groundspeed Altitude Reporting Facility
EDT Latitude Longitude Course Direction KTS MPH feet Rate Location/Type
10:20AM 20.8158 -103.5885 319° Northwest  Level Estimated
10:21AM 20.8745 -103.6441 319° Northwest  Level Estimated
10:22AM 20.9333 -103.6998 318° Northwest  Level Estimated
10:23AM 20.9920 -103.7554 318° Northwest  Level Estimated
10:24AM 21.0622 -103.8221 318° Northwest  Level Estimated
10:25AM 21.1324 -103.8889 318° Northwest  Level Estimated
10:26AM 21.2026 -103.9557 318° Northwest  Level Estimated
10:27AM 21.2728 -104.0226 318° Northwest  Level Estimated
10:28AM 21.3429 -104.0896 318° Northwest  Level Estimated
10:29AM 21.4130 -104.1566 318° Northwest  Level Estimated
10:30AM 21.4831 -104.2237 318° Northwest  Level Estimated
10:31AM 21.5532 -104.2908 318° Northwest  Level Estimated
10:32AM 21.6232 -104.3580 318° Northwest  Level Estimated
10:33AM 21.6932 -104.4253 318° Northwest  Level Estimated
10:34AM 21.7631 -104.4926 318° Northwest  Level Estimated
10:35AM 21.8331 -104.5600 318° Northwest  Level Estimated
10:36AM 21.9030 -104.6275 318° Northwest  Level Estimated
10:37AM 21.9729 -104.6950 318° Northwest  Level Estimated
10:38AM 22.0427 -104.7626 318° Northwest  Level Estimated
10:39AM 22.1126 -104.8303 318° Northwest  Level Estimated
10:40AM 22.1824 -104.8980 318° Northwest  Level Estimated
10:41AM 22.2522 -104.9659 318° Northwest  Level Estimated
10:42AM 22.3219 -105.0337 318° Northwest  Level Estimated
10:43AM 22.3916 -105.1017 318° Northwest  Level Estimated
10:44AM 22.4613 -105.1697 318° Northwest  Level Estimated
10:45AM 22.5310 -105.2378 318° Northwest  Level Estimated
10:46AM 22.6006 -105.3059 318° Northwest  Level Estimated
10:47AM 22.6702 -105.3741 318° Northwest  Level Estimated
10:48AM 22.7398 -105.4424 318° Northwest  Level Estimated
10:49AM 22.8094 -105.5107 318° Northwest  Level Estimated
10:50AM 22.8789 -105.5792 318° Northwest  Level Estimated
10:51AM 22.9484 -105.6477 318° Northwest  Level Estimated
10:52AM 23.0178 -105.7162 318° Northwest  Level Estimated
10:53AM 23.0873 -105.7849 318° Northwest  Level Estimated
10:54AM 23.1567 -105.8536 318° Northwest  Level Estimated
10:55AM 23.2260 -105.9223 318° Northwest  Level Estimated
10:56AM 23.2954 -105.9912 318° Northwest  Level Estimated
10:57AM 23.3647 -106.0601 318° Northwest  Level Estimated
10:58AM 23.4340 -106.1291 318° Northwest  Level Estimated
10:59AM 23.5032 -106.1982 318° Northwest  Level Estimated
11:00AM 23.5724 -106.2673 318° Northwest  Level Estimated
11:01AM 23.6416 -106.3365 318° Northwest  Level Estimated
11:02AM 23.7108 -106.4058 317° Northwest  Level Estimated
11:03AM 23.7799 -106.4752 317° Northwest  Level Estimated
11:04AM 23.8490 -106.5446 317° Northwest  Level Estimated
11:05AM 23.9181 -106.6141 317° Northwest  Level Estimated
11:06AM 23.9871 -106.6837 317° Northwest  Level Estimated
11:07AM 24.0561 -106.7533 317° Northwest  Level Estimated
11:08AM 24.1251 -106.8231 317° Northwest  Level Estimated
11:09AM 24.1940 -106.8929 317° Northwest  Level Estimated
11:10AM 24.2629 -106.9627 317° Northwest  Level Estimated
11:11AM 24.3318 -107.0327 317° Northwest  Level Estimated
11:12AM 24.4007 -107.1027 317° Northwest  Level Estimated
11:13AM 24.4695 -107.1728 317° Northwest  Level Estimated
11:14AM 24.5382 -107.2430 317° Northwest  Level Estimated
11:15AM 24.6070 -107.3133 317° Northwest  Level Estimated
11:16AM 24.6757 -107.3836 317° Northwest  Level Estimated
11:17AM 24.7444 -107.4540 317° Northwest  Level Estimated
11:18AM 24.7645 -107.4747 317° Northwest  Level Estimated
11:19AM 24.7645 -107.4747 138° Southeast  Level Estimated
11:20AM 24.7645 -107.4747 138° Southeast  Level Estimated
11:21AM 24.7645 -107.4747 138° Southeast  Level Estimated
11:22AM 24.7645 -107.4747 138° Southeast  Level Estimated
11:23AM 24.7645 -107.4747 138° Southeast  Level Estimated
11:24AM 24.7645 -107.4747 138° Southeast  Level Estimated
11:25AM 24.7645 -107.4747 138° Southeast  Level Estimated
11:26AM 24.7645 -107.4747 138° Southeast  Level Estimated
11:27AM 24.7645 -107.4747 138° Southeast  Level Estimated
11:28AM 24.7645 -107.4747 138° Southeast  Level Estimated
11:29AM 24.7645 -107.4747 138° Southeast  Level Estimated
11:30AM 24.7645 -107.4747 138° Southeast  Level Estimated
11:31AM 24.7645 -107.4747 138° Southeast  Level Estimated